sensor_id;sensor_type;location;lat;lon;timestamp;pressure;altitude;pressure_sealevel;temperature
22322;BMP180;11328;53.928;18.522;2024-03-22T00:00:55;100476.00;;;8.30
22322;BMP180;11328;53.928;18.522;2024-03-22T00:03:22;100482.00;;;8.10
22322;BMP180;11328;53.928;18.522;2024-03-22T00:05:48;100481.00;;;8.20
22322;BMP180;11328;53.928;18.522;2024-03-22T00:08:14;100485.00;;;8.30
22322;BMP180;11328;53.928;18.522;2024-03-22T00:10:40;100486.00;;;8.30
22322;BMP180;11328;53.928;18.522;2024-03-22T00:13:06;100482.00;;;8.20
22322;BMP180;11328;53.928;18.522;2024-03-22T00:15:32;100474.00;;;8.10
22322;BMP180;11328;53.928;18.522;2024-03-22T00:17:58;100474.00;;;8.00
22322;BMP180;11328;53.928;18.522;2024-03-22T00:20:24;100471.00;;;8.10
22322;BMP180;11328;53.928;18.522;2024-03-22T00:22:50;100463.00;;;8.10
22322;BMP180;11328;53.928;18.522;2024-03-22T00:25:16;100470.00;;;8.20
22322;BMP180;11328;53.928;18.522;2024-03-22T00:27:42;100462.00;;;8.20
22322;BMP180;11328;53.928;18.522;2024-03-22T00:30:08;100460.00;;;8.20
22322;BMP180;11328;53.928;18.522;2024-03-22T00:32:34;100450.00;;;8.30
22322;BMP180;11328;53.928;18.522;2024-03-22T00:35:00;100453.00;;;8.30
22322;BMP180;11328;53.928;18.522;2024-03-22T00:37:26;100454.00;;;8.20
22322;BMP180;11328;53.928;18.522;2024-03-22T00:39:53;100445.00;;;8.10
22322;BMP180;11328;53.928;18.522;2024-03-22T00:42:19;100436.00;;;7.90
22322;BMP180;11328;53.928;18.522;2024-03-22T00:44:45;100436.00;;;8.10
22322;BMP180;11328;53.928;18.522;2024-03-22T00:47:11;100435.00;;;8.00
22322;BMP180;11328;53.928;18.522;2024-03-22T00:49:37;100440.00;;;8.00
22322;BMP180;11328;53.928;18.522;2024-03-22T00:52:03;100397.00;;;8.00
22322;BMP180;11328;53.928;18.522;2024-03-22T00:54:29;100427.00;;;8.00
22322;BMP180;11328;53.928;18.522;2024-03-22T00:56:55;100433.00;;;8.10
22322;BMP180;11328;53.928;18.522;2024-03-22T00:59:21;100424.00;;;8.00
22322;BMP180;11328;53.928;18.522;2024-03-22T01:01:48;100428.00;;;7.90
22322;BMP180;11328;53.928;18.522;2024-03-22T01:04:14;100427.00;;;8.10
22322;BMP180;11328;53.928;18.522;2024-03-22T01:06:40;100428.00;;;8.00
22322;BMP180;11328;53.928;18.522;2024-03-22T01:09:06;100429.00;;;8.00
22322;BMP180;11328;53.928;18.522;2024-03-22T01:11:33;100433.00;;;8.00
22322;BMP180;11328;53.928;18.522;2024-03-22T01:13:59;100426.00;;;8.10
22322;BMP180;11328;53.928;18.522;2024-03-22T01:16:25;100426.00;;;7.90
22322;BMP180;11328;53.928;18.522;2024-03-22T01:18:51;100425.00;;;7.80
22322;BMP180;11328;53.928;18.522;2024-03-22T01:21:17;100429.00;;;7.80
22322;BMP180;11328;53.928;18.522;2024-03-22T01:23:43;100432.00;;;7.60
22322;BMP180;11328;53.928;18.522;2024-03-22T01:26:09;100424.00;;;7.60
22322;BMP180;11328;53.928;18.522;2024-03-22T01:28:35;100432.00;;;7.50
22322;BMP180;11328;53.928;18.522;2024-03-22T01:31:01;100430.00;;;7.40
22322;BMP180;11328;53.928;18.522;2024-03-22T01:33:27;100423.00;;;7.50
22322;BMP180;11328;53.928;18.522;2024-03-22T01:35:53;100426.00;;;7.50
22322;BMP180;11328;53.928;18.522;2024-03-22T01:38:19;100410.00;;;7.50
22322;BMP180;11328;53.928;18.522;2024-03-22T01:40:45;100432.00;;;7.50
22322;BMP180;11328;53.928;18.522;2024-03-22T01:43:11;100421.00;;;7.50
22322;BMP180;11328;53.928;18.522;2024-03-22T01:45:37;100419.00;;;7.40
22322;BMP180;11328;53.928;18.522;2024-03-22T01:48:03;100425.00;;;7.40
22322;BMP180;11328;53.928;18.522;2024-03-22T01:50:29;100427.00;;;7.40
22322;BMP180;11328;53.928;18.522;2024-03-22T01:52:57;100421.00;;;7.30
22322;BMP180;11328;53.928;18.522;2024-03-22T01:55:23;100417.00;;;7.30
22322;BMP180;11328;53.928;18.522;2024-03-22T01:57:51;100404.00;;;7.20
22322;BMP180;11328;53.928;18.522;2024-03-22T02:00:19;100390.00;;;7.20
22322;BMP180;11328;53.928;18.522;2024-03-22T02:02:45;100407.00;;;7.10
22322;BMP180;11328;53.928;18.522;2024-03-22T02:05:16;100403.00;;;7.00
22322;BMP180;11328;53.928;18.522;2024-03-22T02:07:45;100402.00;;;7.00
22322;BMP180;11328;53.928;18.522;2024-03-22T02:10:12;100362.00;;;7.00
22322;BMP180;11328;53.928;18.522;2024-03-22T02:12:39;100387.00;;;6.90
22322;BMP180;11328;53.928;18.522;2024-03-22T02:15:06;100386.00;;;7.00
22322;BMP180;11328;53.928;18.522;2024-03-22T02:17:33;100387.00;;;6.80
22322;BMP180;11328;53.928;18.522;2024-03-22T02:20:00;100380.00;;;6.80
22322;BMP180;11328;53.928;18.522;2024-03-22T02:22:27;100372.00;;;6.80
22322;BMP180;11328;53.928;18.522;2024-03-22T02:24:53;100366.00;;;6.80
22322;BMP180;11328;53.928;18.522;2024-03-22T02:27:19;100369.00;;;6.80
22322;BMP180;11328;53.928;18.522;2024-03-22T02:29:45;100357.00;;;6.80
22322;BMP180;11328;53.928;18.522;2024-03-22T02:32:12;100354.00;;;6.80
22322;BMP180;11328;53.928;18.522;2024-03-22T02:34:38;100349.00;;;6.80
22322;BMP180;11328;53.928;18.522;2024-03-22T02:37:04;100352.00;;;6.70
22322;BMP180;11328;53.928;18.522;2024-03-22T02:39:30;100340.00;;;6.60
22322;BMP180;11328;53.928;18.522;2024-03-22T02:41:56;100344.00;;;6.60
22322;BMP180;11328;53.928;18.522;2024-03-22T02:44:22;100349.00;;;6.60
22322;BMP180;11328;53.928;18.522;2024-03-22T02:46:48;100349.00;;;6.60
22322;BMP180;11328;53.928;18.522;2024-03-22T02:49:14;100351.00;;;6.60
22322;BMP180;11328;53.928;18.522;2024-03-22T02:51:40;100353.00;;;6.60
22322;BMP180;11328;53.928;18.522;2024-03-22T02:54:06;100350.00;;;6.50
22322;BMP180;11328;53.928;18.522;2024-03-22T02:56:32;100345.00;;;6.50
22322;BMP180;11328;53.928;18.522;2024-03-22T02:58:58;100339.00;;;6.60
22322;BMP180;11328;53.928;18.522;2024-03-22T03:01:24;100348.00;;;6.60
22322;BMP180;11328;53.928;18.522;2024-03-22T03:03:50;100348.00;;;6.60
22322;BMP180;11328;53.928;18.522;2024-03-22T03:06:16;100346.00;;;6.60
22322;BMP180;11328;53.928;18.522;2024-03-22T03:08:44;100347.00;;;6.60
22322;BMP180;11328;53.928;18.522;2024-03-22T03:11:10;100346.00;;;6.60
22322;BMP180;11328;53.928;18.522;2024-03-22T03:13:37;100348.00;;;6.70
22322;BMP180;11328;53.928;18.522;2024-03-22T03:16:03;100350.00;;;6.70
22322;BMP180;11328;53.928;18.522;2024-03-22T03:18:29;100352.00;;;6.60
22322;BMP180;11328;53.928;18.522;2024-03-22T03:20:55;100343.00;;;6.60
22322;BMP180;11328;53.928;18.522;2024-03-22T03:23:21;100335.00;;;6.70
22322;BMP180;11328;53.928;18.522;2024-03-22T03:25:47;100323.00;;;6.70
22322;BMP180;11328;53.928;18.522;2024-03-22T03:28:14;100341.00;;;6.70
22322;BMP180;11328;53.928;18.522;2024-03-22T03:30:40;100346.00;;;6.80
22322;BMP180;11328;53.928;18.522;2024-03-22T03:33:06;100339.00;;;6.80
22322;BMP180;11328;53.928;18.522;2024-03-22T03:35:32;100323.00;;;6.80
22322;BMP180;11328;53.928;18.522;2024-03-22T03:37:58;100338.00;;;6.80
22322;BMP180;11328;53.928;18.522;2024-03-22T03:40:24;100334.00;;;6.80
22322;BMP180;11328;53.928;18.522;2024-03-22T03:42:51;100325.00;;;6.80
22322;BMP180;11328;53.928;18.522;2024-03-22T03:45:17;100324.00;;;6.90
22322;BMP180;11328;53.928;18.522;2024-03-22T03:47:43;100324.00;;;6.80
22322;BMP180;11328;53.928;18.522;2024-03-22T03:50:09;100331.00;;;6.80
22322;BMP180;11328;53.928;18.522;2024-03-22T03:52:35;100344.00;;;6.60
22322;BMP180;11328;53.928;18.522;2024-03-22T03:55:01;100331.00;;;6.50
22322;BMP180;11328;53.928;18.522;2024-03-22T03:57:27;100332.00;;;6.40
22322;BMP180;11328;53.928;18.522;2024-03-22T03:59:53;100333.00;;;6.50
22322;BMP180;11328;53.928;18.522;2024-03-22T04:02:20;100334.00;;;6.50
22322;BMP180;11328;53.928;18.522;2024-03-22T04:04:47;100324.00;;;6.50
22322;BMP180;11328;53.928;18.522;2024-03-22T04:07:13;100320.00;;;6.50
22322;BMP180;11328;53.928;18.522;2024-03-22T04:09:39;100315.00;;;6.50
22322;BMP180;11328;53.928;18.522;2024-03-22T04:12:05;100310.00;;;6.50
22322;BMP180;11328;53.928;18.522;2024-03-22T04:14:31;100318.00;;;6.10
22322;BMP180;11328;53.928;18.522;2024-03-22T04:16:57;100325.00;;;6.40
22322;BMP180;11328;53.928;18.522;2024-03-22T04:19:23;100319.00;;;6.40
22322;BMP180;11328;53.928;18.522;2024-03-22T04:21:50;100319.00;;;6.30
22322;BMP180;11328;53.928;18.522;2024-03-22T04:24:16;100310.00;;;6.30
22322;BMP180;11328;53.928;18.522;2024-03-22T04:26:42;100320.00;;;6.30
22322;BMP180;11328;53.928;18.522;2024-03-22T04:29:08;100306.00;;;6.40
22322;BMP180;11328;53.928;18.522;2024-03-22T04:31:35;100312.00;;;6.40
22322;BMP180;11328;53.928;18.522;2024-03-22T04:34:02;100284.00;;;6.50
22322;BMP180;11328;53.928;18.522;2024-03-22T04:36:28;100303.00;;;6.40
22322;BMP180;11328;53.928;18.522;2024-03-22T04:38:55;100311.00;;;6.30
22322;BMP180;11328;53.928;18.522;2024-03-22T04:41:21;100307.00;;;6.30
22322;BMP180;11328;53.928;18.522;2024-03-22T04:43:47;100299.00;;;6.20
22322;BMP180;11328;53.928;18.522;2024-03-22T04:46:13;100294.00;;;6.30
22322;BMP180;11328;53.928;18.522;2024-03-22T04:48:39;100295.00;;;6.30
22322;BMP180;11328;53.928;18.522;2024-03-22T04:51:05;100284.00;;;6.30
22322;BMP180;11328;53.928;18.522;2024-03-22T04:53:31;100280.00;;;6.40
22322;BMP180;11328;53.928;18.522;2024-03-22T04:55:57;100273.00;;;6.40
22322;BMP180;11328;53.928;18.522;2024-03-22T04:58:23;100274.00;;;6.40
22322;BMP180;11328;53.928;18.522;2024-03-22T05:00:55;100286.00;;;6.40
22322;BMP180;11328;53.928;18.522;2024-03-22T05:03:21;100283.00;;;6.40
22322;BMP180;11328;53.928;18.522;2024-03-22T05:05:51;100282.00;;;6.40
22322;BMP180;11328;53.928;18.522;2024-03-22T05:08:17;100278.00;;;6.30
22322;BMP180;11328;53.928;18.522;2024-03-22T05:10:43;100279.00;;;6.20
22322;BMP180;11328;53.928;18.522;2024-03-22T05:13:09;100282.00;;;6.30
22322;BMP180;11328;53.928;18.522;2024-03-22T05:15:36;100269.00;;;6.20
22322;BMP180;11328;53.928;18.522;2024-03-22T05:18:02;100273.00;;;6.30
22322;BMP180;11328;53.928;18.522;2024-03-22T05:20:28;100281.00;;;6.20
22322;BMP180;11328;53.928;18.522;2024-03-22T05:22:55;100273.00;;;6.20
22322;BMP180;11328;53.928;18.522;2024-03-22T05:25:21;100281.00;;;6.20
22322;BMP180;11328;53.928;18.522;2024-03-22T05:27:47;100271.00;;;6.30
22322;BMP180;11328;53.928;18.522;2024-03-22T05:30:13;100279.00;;;6.20
22322;BMP180;11328;53.928;18.522;2024-03-22T05:32:43;100279.00;;;6.40
22322;BMP180;11328;53.928;18.522;2024-03-22T05:35:09;100284.00;;;6.50
22322;BMP180;11328;53.928;18.522;2024-03-22T05:37:35;100288.00;;;6.60
22322;BMP180;11328;53.928;18.522;2024-03-22T05:40:03;100278.00;;;6.60
22322;BMP180;11328;53.928;18.522;2024-03-22T05:42:30;100267.00;;;6.40
22322;BMP180;11328;53.928;18.522;2024-03-22T05:44:56;100281.00;;;6.50
22322;BMP180;11328;53.928;18.522;2024-03-22T05:47:23;100280.00;;;6.60
22322;BMP180;11328;53.928;18.522;2024-03-22T05:49:48;100275.00;;;6.50
22322;BMP180;11328;53.928;18.522;2024-03-22T05:52:15;100278.00;;;6.60
22322;BMP180;11328;53.928;18.522;2024-03-22T05:54:42;100282.00;;;6.60
22322;BMP180;11328;53.928;18.522;2024-03-22T05:57:08;100280.00;;;6.60
22322;BMP180;11328;53.928;18.522;2024-03-22T05:59:34;100244.00;;;6.60
22322;BMP180;11328;53.928;18.522;2024-03-22T06:02:00;100272.00;;;6.50
22322;BMP180;11328;53.928;18.522;2024-03-22T06:04:27;100269.00;;;6.60
22322;BMP180;11328;53.928;18.522;2024-03-22T06:06:53;100273.00;;;6.70
22322;BMP180;11328;53.928;18.522;2024-03-22T06:09:19;100273.00;;;6.70
22322;BMP180;11328;53.928;18.522;2024-03-22T06:12:01;100255.00;;;6.70
22322;BMP180;11328;53.928;18.522;2024-03-22T06:14:28;100252.00;;;6.80
22322;BMP180;11328;53.928;18.522;2024-03-22T06:16:54;100237.00;;;7.00
22322;BMP180;11328;53.928;18.522;2024-03-22T06:19:20;100246.00;;;7.00
22322;BMP180;11328;53.928;18.522;2024-03-22T06:21:46;100245.00;;;7.20
22322;BMP180;11328;53.928;18.522;2024-03-22T06:24:12;100238.00;;;7.20
22322;BMP180;11328;53.928;18.522;2024-03-22T06:26:38;100239.00;;;7.20
22322;BMP180;11328;53.928;18.522;2024-03-22T06:29:04;100226.00;;;7.30
22322;BMP180;11328;53.928;18.522;2024-03-22T06:31:31;100223.00;;;7.20
22322;BMP180;11328;53.928;18.522;2024-03-22T06:33:57;100220.00;;;7.30
22322;BMP180;11328;53.928;18.522;2024-03-22T06:36:31;100223.00;;;7.40
22322;BMP180;11328;53.928;18.522;2024-03-22T06:38:58;100192.00;;;7.50
22322;BMP180;11328;53.928;18.522;2024-03-22T06:41:25;100209.00;;;7.60
22322;BMP180;11328;53.928;18.522;2024-03-22T06:43:52;100205.00;;;7.60
22322;BMP180;11328;53.928;18.522;2024-03-22T06:46:18;100206.00;;;7.50
22322;BMP180;11328;53.928;18.522;2024-03-22T06:48:45;100205.00;;;7.60
22322;BMP180;11328;53.928;18.522;2024-03-22T06:51:11;100201.00;;;7.70
22322;BMP180;11328;53.928;18.522;2024-03-22T06:53:37;100193.00;;;7.70
22322;BMP180;11328;53.928;18.522;2024-03-22T06:56:03;100204.00;;;7.70
22322;BMP180;11328;53.928;18.522;2024-03-22T06:58:29;100205.00;;;7.70
22322;BMP180;11328;53.928;18.522;2024-03-22T07:00:55;100217.00;;;7.90
22322;BMP180;11328;53.928;18.522;2024-03-22T07:03:21;100214.00;;;8.10
22322;BMP180;11328;53.928;18.522;2024-03-22T07:05:48;100224.00;;;8.10
22322;BMP180;11328;53.928;18.522;2024-03-22T07:08:14;100225.00;;;8.00
22322;BMP180;11328;53.928;18.522;2024-03-22T07:10:40;100226.00;;;7.80
22322;BMP180;11328;53.928;18.522;2024-03-22T07:13:06;100223.00;;;7.90
22322;BMP180;11328;53.928;18.522;2024-03-22T07:15:32;100230.00;;;8.10
22322;BMP180;11328;53.928;18.522;2024-03-22T07:17:58;100230.00;;;8.20
22322;BMP180;11328;53.928;18.522;2024-03-22T07:20:26;100211.00;;;8.00
22322;BMP180;11328;53.928;18.522;2024-03-22T07:22:52;100200.00;;;7.90
22322;BMP180;11328;53.928;18.522;2024-03-22T07:25:19;100189.00;;;7.90
22322;BMP180;11328;53.928;18.522;2024-03-22T07:27:45;100186.00;;;7.90
22322;BMP180;11328;53.928;18.522;2024-03-22T07:30:12;100171.00;;;8.00
22322;BMP180;11328;53.928;18.522;2024-03-22T07:32:38;100179.00;;;8.00
22322;BMP180;11328;53.928;18.522;2024-03-22T07:35:04;100174.00;;;8.10
22322;BMP180;11328;53.928;18.522;2024-03-22T07:37:30;100179.00;;;8.00
22322;BMP180;11328;53.928;18.522;2024-03-22T07:39:56;100176.00;;;8.00
22322;BMP180;11328;53.928;18.522;2024-03-22T07:42:22;100178.00;;;8.10
22322;BMP180;11328;53.928;18.522;2024-03-22T07:44:48;100170.00;;;8.20
22322;BMP180;11328;53.928;18.522;2024-03-22T08:00:38;100171.00;;;9.20
22322;BMP180;11328;53.928;18.522;2024-03-22T08:03:04;100091.00;;;9.00
22322;BMP180;11328;53.928;18.522;2024-03-22T08:05:31;100173.00;;;8.80
22322;BMP180;11328;53.928;18.522;2024-03-22T08:07:57;100158.00;;;8.80
22322;BMP180;11328;53.928;18.522;2024-03-22T08:10:23;100156.00;;;8.80
22322;BMP180;11328;53.928;18.522;2024-03-22T08:12:49;100146.00;;;8.80
22322;BMP180;11328;53.928;18.522;2024-03-22T08:15:15;100153.00;;;8.90
22322;BMP180;11328;53.928;18.522;2024-03-22T08:17:41;100148.00;;;8.80
22322;BMP180;11328;53.928;18.522;2024-03-22T08:20:08;100143.00;;;8.70
22322;BMP180;11328;53.928;18.522;2024-03-22T08:22:34;100135.00;;;8.70
22322;BMP180;11328;53.928;18.522;2024-03-22T08:25:00;100151.00;;;8.80
22322;BMP180;11328;53.928;18.522;2024-03-22T08:27:28;100143.00;;;8.80
22322;BMP180;11328;53.928;18.522;2024-03-22T08:29:54;100135.00;;;8.90
22322;BMP180;11328;53.928;18.522;2024-03-22T08:32:20;100125.00;;;8.90
22322;BMP180;11328;53.928;18.522;2024-03-22T08:34:46;100127.00;;;8.90
22322;BMP180;11328;53.928;18.522;2024-03-22T08:37:12;100117.00;;;9.00
22322;BMP180;11328;53.928;18.522;2024-03-22T08:39:38;100110.00;;;9.00
22322;BMP180;11328;53.928;18.522;2024-03-22T08:42:05;100117.00;;;8.90
22322;BMP180;11328;53.928;18.522;2024-03-22T08:44:31;100116.00;;;9.00
22322;BMP180;11328;53.928;18.522;2024-03-22T08:46:57;100121.00;;;9.10
22322;BMP180;11328;53.928;18.522;2024-03-22T08:49:24;100124.00;;;9.10
22322;BMP180;11328;53.928;18.522;2024-03-22T08:51:50;100104.00;;;9.20
22322;BMP180;11328;53.928;18.522;2024-03-22T08:54:16;100111.00;;;9.30
22322;BMP180;11328;53.928;18.522;2024-03-22T08:56:42;100111.00;;;9.40
22322;BMP180;11328;53.928;18.522;2024-03-22T08:59:08;100113.00;;;9.50
22322;BMP180;11328;53.928;18.522;2024-03-22T09:01:34;100101.00;;;9.60
22322;BMP180;11328;53.928;18.522;2024-03-22T09:04:01;100095.00;;;9.70
22322;BMP180;11328;53.928;18.522;2024-03-22T09:06:27;100081.00;;;9.60
22322;BMP180;11328;53.928;18.522;2024-03-22T09:08:53;100079.00;;;9.70
22322;BMP180;11328;53.928;18.522;2024-03-22T09:11:24;100062.00;;;9.80
22322;BMP180;11328;53.928;18.522;2024-03-22T09:13:54;100074.00;;;10.00
22322;BMP180;11328;53.928;18.522;2024-03-22T09:16:23;100079.00;;;9.90
22322;BMP180;11328;53.928;18.522;2024-03-22T09:18:50;100077.00;;;9.90
22322;BMP180;11328;53.928;18.522;2024-03-22T09:21:17;100070.00;;;10.00
22322;BMP180;11328;53.928;18.522;2024-03-22T09:23:43;100061.00;;;10.10
22322;BMP180;11328;53.928;18.522;2024-03-22T09:26:09;100052.00;;;10.20
22322;BMP180;11328;53.928;18.522;2024-03-22T09:28:35;100058.00;;;10.30
22322;BMP180;11328;53.928;18.522;2024-03-22T09:31:06;100049.00;;;10.30
22322;BMP180;11328;53.928;18.522;2024-03-22T09:33:36;100046.00;;;10.50
22322;BMP180;11328;53.928;18.522;2024-03-22T09:36:03;100031.00;;;10.20
22322;BMP180;11328;53.928;18.522;2024-03-22T09:38:30;100027.00;;;10.20
22322;BMP180;11328;53.928;18.522;2024-03-22T09:40:58;100030.00;;;10.50
22322;BMP180;11328;53.928;18.522;2024-03-22T09:43:27;100025.00;;;10.70
22322;BMP180;11328;53.928;18.522;2024-03-22T09:45:55;100028.00;;;10.70
22322;BMP180;11328;53.928;18.522;2024-03-22T09:48:23;100032.00;;;10.70
22322;BMP180;11328;53.928;18.522;2024-03-22T09:50:49;100028.00;;;10.50
22322;BMP180;11328;53.928;18.522;2024-03-22T09:53:21;100026.00;;;10.60
22322;BMP180;11328;53.928;18.522;2024-03-22T09:55:48;100013.00;;;10.80
22322;BMP180;11328;53.928;18.522;2024-03-22T09:58:15;100016.00;;;10.90
22322;BMP180;11328;53.928;18.522;2024-03-22T10:00:43;100012.00;;;10.90
22322;BMP180;11328;53.928;18.522;2024-03-22T10:03:12;100000.00;;;11.00
22322;BMP180;11328;53.928;18.522;2024-03-22T10:05:41;99987.00;;;11.00
22322;BMP180;11328;53.928;18.522;2024-03-22T10:08:07;99995.00;;;11.20
22322;BMP180;11328;53.928;18.522;2024-03-22T10:10:34;99995.00;;;11.10
22322;BMP180;11328;53.928;18.522;2024-03-22T10:13:02;99980.00;;;11.10
22322;BMP180;11328;53.928;18.522;2024-03-22T10:15:29;99980.00;;;11.00
22322;BMP180;11328;53.928;18.522;2024-03-22T10:17:59;99980.00;;;11.00
22322;BMP180;11328;53.928;18.522;2024-03-22T10:20:25;99978.00;;;11.00
22322;BMP180;11328;53.928;18.522;2024-03-22T10:22:59;99972.00;;;10.90
22322;BMP180;11328;53.928;18.522;2024-03-22T10:25:29;99970.00;;;10.90
22322;BMP180;11328;53.928;18.522;2024-03-22T10:27:56;99962.00;;;10.70
22322;BMP180;11328;53.928;18.522;2024-03-22T10:30:24;99952.00;;;10.80
22322;BMP180;11328;53.928;18.522;2024-03-22T10:32:52;99964.00;;;10.70
22322;BMP180;11328;53.928;18.522;2024-03-22T10:35:18;99959.00;;;10.80
22322;BMP180;11328;53.928;18.522;2024-03-22T10:37:45;99956.00;;;10.90
22322;BMP180;11328;53.928;18.522;2024-03-22T10:40:11;99959.00;;;10.70
22322;BMP180;11328;53.928;18.522;2024-03-22T10:42:39;99957.00;;;10.60
22322;BMP180;11328;53.928;18.522;2024-03-22T10:45:08;99950.00;;;10.70
22322;BMP180;11328;53.928;18.522;2024-03-22T10:47:37;99945.00;;;10.60
22322;BMP180;11328;53.928;18.522;2024-03-22T10:50:08;99946.00;;;10.60
22322;BMP180;11328;53.928;18.522;2024-03-22T10:52:48;99931.00;;;10.70
22322;BMP180;11328;53.928;18.522;2024-03-22T10:55:37;99924.00;;;10.70
22322;BMP180;11328;53.928;18.522;2024-03-22T10:58:05;99921.00;;;10.70
22322;BMP180;11328;53.928;18.522;2024-03-22T11:00:35;99923.00;;;10.80
22322;BMP180;11328;53.928;18.522;2024-03-22T11:03:03;99918.00;;;10.80
22322;BMP180;11328;53.928;18.522;2024-03-22T11:05:30;99913.00;;;10.90
22322;BMP180;11328;53.928;18.522;2024-03-22T11:08:04;99912.00;;;10.80
22322;BMP180;11328;53.928;18.522;2024-03-22T11:10:34;99890.00;;;10.80
22322;BMP180;11328;53.928;18.522;2024-03-22T11:13:02;99883.00;;;10.90
22322;BMP180;11328;53.928;18.522;2024-03-22T11:15:29;99899.00;;;10.90
22322;BMP180;11328;53.928;18.522;2024-03-22T11:17:57;99894.00;;;11.00
22322;BMP180;11328;53.928;18.522;2024-03-22T11:20:23;99889.00;;;10.90
22322;BMP180;11328;53.928;18.522;2024-03-22T11:22:52;99879.00;;;10.80
22322;BMP180;11328;53.928;18.522;2024-03-22T11:25:19;99880.00;;;10.80
22322;BMP180;11328;53.928;18.522;2024-03-22T11:27:46;99888.00;;;10.80
22322;BMP180;11328;53.928;18.522;2024-03-22T11:30:13;99892.00;;;10.90
22322;BMP180;11328;53.928;18.522;2024-03-22T11:32:40;99874.00;;;10.70
22322;BMP180;11328;53.928;18.522;2024-03-22T11:35:13;99866.00;;;10.80
22322;BMP180;11328;53.928;18.522;2024-03-22T11:37:40;99867.00;;;10.90
22322;BMP180;11328;53.928;18.522;2024-03-22T11:40:09;99856.00;;;10.90
22322;BMP180;11328;53.928;18.522;2024-03-22T11:42:41;99852.00;;;10.80
22322;BMP180;11328;53.928;18.522;2024-03-22T11:45:14;99847.00;;;10.80
22322;BMP180;11328;53.928;18.522;2024-03-22T11:47:41;99851.00;;;10.80
22322;BMP180;11328;53.928;18.522;2024-03-22T11:50:07;99835.00;;;10.60
22322;BMP180;11328;53.928;18.522;2024-03-22T11:52:35;99836.00;;;10.60
22322;BMP180;11328;53.928;18.522;2024-03-22T11:55:04;99824.00;;;10.60
22322;BMP180;11328;53.928;18.522;2024-03-22T11:57:35;99832.00;;;10.70
22322;BMP180;11328;53.928;18.522;2024-03-22T12:00:03;99826.00;;;10.70
22322;BMP180;11328;53.928;18.522;2024-03-22T12:02:37;99820.00;;;10.60
22322;BMP180;11328;53.928;18.522;2024-03-22T12:05:05;99810.00;;;10.70
22322;BMP180;11328;53.928;18.522;2024-03-22T12:07:34;99807.00;;;10.80
22322;BMP180;11328;53.928;18.522;2024-03-22T12:10:00;99801.00;;;10.80
22322;BMP180;11328;53.928;18.522;2024-03-22T12:12:26;99791.00;;;10.70
22322;BMP180;11328;53.928;18.522;2024-03-22T12:14:53;99796.00;;;10.70
22322;BMP180;11328;53.928;18.522;2024-03-22T12:17:19;99794.00;;;10.80
22322;BMP180;11328;53.928;18.522;2024-03-22T12:19:45;99791.00;;;10.80
22322;BMP180;11328;53.928;18.522;2024-03-22T12:22:11;99790.00;;;10.80
22322;BMP180;11328;53.928;18.522;2024-03-22T12:24:37;99787.00;;;10.70
22322;BMP180;11328;53.928;18.522;2024-03-22T12:27:04;99781.00;;;10.60
22322;BMP180;11328;53.928;18.522;2024-03-22T12:29:34;99776.00;;;10.60
22322;BMP180;11328;53.928;18.522;2024-03-22T12:32:02;99765.00;;;10.50
22322;BMP180;11328;53.928;18.522;2024-03-22T12:34:30;99761.00;;;10.60
22322;BMP180;11328;53.928;18.522;2024-03-22T12:37:01;99763.00;;;10.60
22322;BMP180;11328;53.928;18.522;2024-03-22T12:39:28;99763.00;;;10.60
22322;BMP180;11328;53.928;18.522;2024-03-22T12:41:54;99759.00;;;10.70
22322;BMP180;11328;53.928;18.522;2024-03-22T12:44:21;99767.00;;;10.70
22322;BMP180;11328;53.928;18.522;2024-03-22T12:46:47;99760.00;;;10.50
22322;BMP180;11328;53.928;18.522;2024-03-22T12:49:14;99754.00;;;10.30
22322;BMP180;11328;53.928;18.522;2024-03-22T12:51:40;99746.00;;;10.60
22322;BMP180;11328;53.928;18.522;2024-03-22T12:54:08;99732.00;;;10.60
22322;BMP180;11328;53.928;18.522;2024-03-22T12:56:34;99743.00;;;10.70
22322;BMP180;11328;53.928;18.522;2024-03-22T12:59:02;99734.00;;;10.80
22322;BMP180;11328;53.928;18.522;2024-03-22T13:01:28;99733.00;;;10.80
22322;BMP180;11328;53.928;18.522;2024-03-22T13:03:55;99722.00;;;9.90
22322;BMP180;11328;53.928;18.522;2024-03-22T13:06:21;99721.00;;;10.80
22322;BMP180;11328;53.928;18.522;2024-03-22T13:08:47;99706.00;;;10.80
22322;BMP180;11328;53.928;18.522;2024-03-22T13:11:13;99709.00;;;10.90
22322;BMP180;11328;53.928;18.522;2024-03-22T13:13:40;99697.00;;;11.00
22322;BMP180;11328;53.928;18.522;2024-03-22T13:16:06;99693.00;;;11.00
22322;BMP180;11328;53.928;18.522;2024-03-22T13:18:35;99682.00;;;11.00
22322;BMP180;11328;53.928;18.522;2024-03-22T13:21:01;99675.00;;;11.00
22322;BMP180;11328;53.928;18.522;2024-03-22T13:23:28;99677.00;;;11.00
22322;BMP180;11328;53.928;18.522;2024-03-22T13:25:54;99672.00;;;11.00
22322;BMP180;11328;53.928;18.522;2024-03-22T13:28:21;99659.00;;;11.10
22322;BMP180;11328;53.928;18.522;2024-03-22T13:30:48;99667.00;;;11.10
22322;BMP180;11328;53.928;18.522;2024-03-22T13:33:15;99649.00;;;11.30
22322;BMP180;11328;53.928;18.522;2024-03-22T13:35:41;99656.00;;;11.30
22322;BMP180;11328;53.928;18.522;2024-03-22T13:38:07;99660.00;;;11.40
22322;BMP180;11328;53.928;18.522;2024-03-22T13:40:39;99658.00;;;11.40
22322;BMP180;11328;53.928;18.522;2024-03-22T13:43:06;99658.00;;;11.30
22322;BMP180;11328;53.928;18.522;2024-03-22T13:45:39;99661.00;;;11.40
22322;BMP180;11328;53.928;18.522;2024-03-22T13:48:11;99645.00;;;11.40
22322;BMP180;11328;53.928;18.522;2024-03-22T13:50:40;99648.00;;;11.40
22322;BMP180;11328;53.928;18.522;2024-03-22T13:53:07;99643.00;;;11.40
22322;BMP180;11328;53.928;18.522;2024-03-22T13:55:35;99644.00;;;11.40
22322;BMP180;11328;53.928;18.522;2024-03-22T13:58:01;99619.00;;;11.50
22322;BMP180;11328;53.928;18.522;2024-03-22T14:00:27;99627.00;;;11.50
22322;BMP180;11328;53.928;18.522;2024-03-22T14:02:53;99624.00;;;11.60
22322;BMP180;11328;53.928;18.522;2024-03-22T14:05:21;99636.00;;;11.60
22322;BMP180;11328;53.928;18.522;2024-03-22T14:07:50;99647.00;;;11.60